sensor_id;sensor_type;location;lat;lon;timestamp;P1;durP1;ratioP1;P2;durP2;ratioP2
73779;SDS011;62093;37.614;15.072;2024-03-23T00:54:54;8.13;;;4.28;;
73779;SDS011;62093;37.614;15.072;2024-03-23T00:57:20;7.93;;;3.75;;
73779;SDS011;62093;37.614;15.072;2024-03-23T00:59:46;6.27;;;3.83;;
73779;SDS011;62093;37.614;15.072;2024-03-23T01:02:12;6.25;;;3.88;;
73779;SDS011;62093;37.614;15.072;2024-03-23T01:04:38;6.32;;;3.95;;
73779;SDS011;62093;37.614;15.072;2024-03-23T01:07:04;6.25;;;3.97;;
73779;SDS011;62093;37.614;15.072;2024-03-23T01:09:30;6.40;;;3.80;;
73779;SDS011;62093;37.614;15.072;2024-03-23T01:11:56;6.55;;;4.15;;
73779;SDS011;62093;37.614;15.072;2024-03-23T01:14:22;6.68;;;3.97;;
73779;SDS011;62093;37.614;15.072;2024-03-23T01:16:48;6.53;;;3.97;;
73779;SDS011;62093;37.614;15.072;2024-03-23T01:19:13;5.78;;;3.53;;
73779;SDS011;62093;37.614;15.072;2024-03-23T01:21:39;6.50;;;3.97;;
73779;SDS011;62093;37.614;15.072;2024-03-23T01:24:05;6.93;;;4.07;;
73779;SDS011;62093;37.614;15.072;2024-03-23T01:26:32;6.30;;;3.63;;
73779;SDS011;62093;37.614;15.072;2024-03-23T01:28:58;6.30;;;3.70;;
73779;SDS011;62093;37.614;15.072;2024-03-23T01:31:23;6.33;;;3.97;;
73779;SDS011;62093;37.614;15.072;2024-03-23T01:33:49;6.53;;;4.00;;
73779;SDS011;62093;37.614;15.072;2024-03-23T01:36:15;6.55;;;3.95;;
73779;SDS011;62093;37.614;15.072;2024-03-23T01:38:41;6.20;;;3.67;;
73779;SDS011;62093;37.614;15.072;2024-03-23T01:41:07;5.85;;;3.80;;
73779;SDS011;62093;37.614;15.072;2024-03-23T01:43:32;6.23;;;3.67;;
73779;SDS011;62093;37.614;15.072;2024-03-23T01:45:58;6.70;;;3.85;;
73779;SDS011;62093;37.614;15.072;2024-03-23T01:48:24;6.70;;;3.90;;
73779;SDS011;62093;37.614;15.072;2024-03-23T01:50:50;6.00;;;3.63;;
73779;SDS011;62093;37.614;15.072;2024-03-23T01:53:16;6.55;;;3.90;;
73779;SDS011;62093;37.614;15.072;2024-03-23T01:55:47;6.68;;;3.78;;
73779;SDS011;62093;37.614;15.072;2024-03-23T01:58:13;6.60;;;3.45;;
73779;SDS011;62093;37.614;15.072;2024-03-23T02:00:39;6.33;;;3.77;;
73779;SDS011;62093;37.614;15.072;2024-03-23T02:03:24;5.95;;;3.65;;
73779;SDS011;62093;37.614;15.072;2024-03-23T02:05:51;6.35;;;4.20;;
73779;SDS011;62093;37.614;15.072;2024-03-23T02:08:18;6.03;;;3.40;;
73779;SDS011;62093;37.614;15.072;2024-03-23T02:10:46;6.28;;;3.70;;
73779;SDS011;62093;37.614;15.072;2024-03-23T02:13:13;6.27;;;3.33;;
73779;SDS011;62093;37.614;15.072;2024-03-23T02:15:39;7.43;;;3.85;;
73779;SDS011;62093;37.614;15.072;2024-03-23T02:18:06;6.15;;;3.60;;
73779;SDS011;62093;37.614;15.072;2024-03-23T02:20:33;5.73;;;3.00;;
73779;SDS011;62093;37.614;15.072;2024-03-23T02:22:59;5.85;;;3.58;;
73779;SDS011;62093;37.614;15.072;2024-03-23T02:25:25;5.80;;;3.35;;
73779;SDS011;62093;37.614;15.072;2024-03-23T02:27:50;6.20;;;3.53;;
73779;SDS011;62093;37.614;15.072;2024-03-23T02:30:18;6.50;;;3.63;;
73779;SDS011;62093;37.614;15.072;2024-03-23T02:32:44;5.70;;;3.30;;
73779;SDS011;62093;37.614;15.072;2024-03-23T02:35:10;7.23;;;3.33;;
73779;SDS011;62093;37.614;15.072;2024-03-23T02:37:35;6.13;;;3.67;;
73779;SDS011;62093;37.614;15.072;2024-03-23T02:40:02;6.35;;;3.90;;
73779;SDS011;62093;37.614;15.072;2024-03-23T02:42:28;5.30;;;3.10;;
73779;SDS011;62093;37.614;15.072;2024-03-23T02:44:54;5.30;;;3.17;;
73779;SDS011;62093;37.614;15.072;2024-03-23T02:47:20;6.78;;;3.55;;
73779;SDS011;62093;37.614;15.072;2024-03-23T02:49:46;7.10;;;4.25;;
73779;SDS011;62093;37.614;15.072;2024-03-23T02:52:11;6.40;;;4.07;;
73779;SDS011;62093;37.614;15.072;2024-03-23T02:54:37;7.45;;;4.18;;
73779;SDS011;62093;37.614;15.072;2024-03-23T02:57:03;6.07;;;3.50;;
73779;SDS011;62093;37.614;15.072;2024-03-23T02:59:30;6.57;;;3.70;;
73779;SDS011;62093;37.614;15.072;2024-03-23T03:01:56;5.90;;;3.53;;
73779;SDS011;62093;37.614;15.072;2024-03-23T03:04:21;5.72;;;3.53;;
73779;SDS011;62093;37.614;15.072;2024-03-23T03:06:48;6.20;;;3.33;;
73779;SDS011;62093;37.614;15.072;2024-03-23T03:09:14;6.03;;;3.50;;
73779;SDS011;62093;37.614;15.072;2024-03-23T03:11:40;6.05;;;3.58;;
73779;SDS011;62093;37.614;15.072;2024-03-23T03:14:06;5.75;;;3.58;;
73779;SDS011;62093;37.614;15.072;2024-03-23T03:16:33;6.00;;;3.33;;
73779;SDS011;62093;37.614;15.072;2024-03-23T03:18:59;6.50;;;4.00;;
73779;SDS011;62093;37.614;15.072;2024-03-23T03:21:25;6.88;;;3.38;;
73779;SDS011;62093;37.614;15.072;2024-03-23T03:23:51;6.43;;;3.70;;
73779;SDS011;62093;37.614;15.072;2024-03-23T03:26:17;5.93;;;3.53;;
73779;SDS011;62093;37.614;15.072;2024-03-23T03:28:43;5.85;;;3.17;;
73779;SDS011;62093;37.614;15.072;2024-03-23T03:31:20;6.43;;;3.72;;
73779;SDS011;62093;37.614;15.072;2024-03-23T03:33:46;5.72;;;3.30;;
73779;SDS011;62093;37.614;15.072;2024-03-23T03:36:12;6.35;;;3.40;;
73779;SDS011;62093;37.614;15.072;2024-03-23T03:38:38;5.47;;;3.47;;
73779;SDS011;62093;37.614;15.072;2024-03-23T03:41:04;6.05;;;3.58;;
73779;SDS011;62093;37.614;15.072;2024-03-23T03:43:31;5.50;;;3.47;;
73779;SDS011;62093;37.614;15.072;2024-03-23T03:45:58;6.13;;;3.50;;
73779;SDS011;62093;37.614;15.072;2024-03-23T03:48:25;5.90;;;3.27;;
73779;SDS011;62093;37.614;15.072;2024-03-23T03:50:51;6.28;;;3.70;;
73779;SDS011;62093;37.614;15.072;2024-03-23T03:53:18;5.15;;;3.00;;
73779;SDS011;62093;37.614;15.072;2024-03-23T03:55:45;5.93;;;3.25;;
73779;SDS011;62093;37.614;15.072;2024-03-23T03:58:11;5.60;;;3.38;;
73779;SDS011;62093;37.614;15.072;2024-03-23T04:00:37;5.63;;;3.30;;
73779;SDS011;62093;37.614;15.072;2024-03-23T04:03:03;6.35;;;3.30;;
73779;SDS011;62093;37.614;15.072;2024-03-23T04:05:29;5.82;;;3.45;;
73779;SDS011;62093;37.614;15.072;2024-03-23T04:07:56;6.20;;;3.30;;
73779;SDS011;62093;37.614;15.072;2024-03-23T04:10:22;5.85;;;3.60;;
73779;SDS011;62093;37.614;15.072;2024-03-23T04:12:48;6.38;;;3.38;;
73779;SDS011;62093;37.614;15.072;2024-03-23T04:15:14;5.90;;;3.47;;
73779;SDS011;62093;37.614;15.072;2024-03-23T04:17:39;5.63;;;3.37;;
73779;SDS011;62093;37.614;15.072;2024-03-23T04:20:08;5.20;;;3.28;;
73779;SDS011;62093;37.614;15.072;2024-03-23T04:22:36;5.60;;;2.90;;
73779;SDS011;62093;37.614;15.072;2024-03-23T04:25:03;5.65;;;3.08;;
73779;SDS011;62093;37.614;15.072;2024-03-23T04:27:35;5.43;;;3.03;;
73779;SDS011;62093;37.614;15.072;2024-03-23T04:30:04;6.20;;;3.25;;
73779;SDS011;62093;37.614;15.072;2024-03-23T04:32:35;5.28;;;2.90;;
73779;SDS011;62093;37.614;15.072;2024-03-23T04:35:02;5.35;;;3.00;;
73779;SDS011;62093;37.614;15.072;2024-03-23T04:37:38;6.55;;;3.08;;
73779;SDS011;62093;37.614;15.072;2024-03-23T04:40:07;5.80;;;3.10;;
73779;SDS011;62093;37.614;15.072;2024-03-23T04:42:33;5.82;;;3.17;;
73779;SDS011;62093;37.614;15.072;2024-03-23T04:44:59;5.82;;;2.97;;
73779;SDS011;62093;37.614;15.072;2024-03-23T04:47:25;6.07;;;3.10;;
73779;SDS011;62093;37.614;15.072;2024-03-23T04:49:52;5.68;;;3.17;;
73779;SDS011;62093;37.614;15.072;2024-03-23T04:52:18;6.20;;;2.93;;
73779;SDS011;62093;37.614;15.072;2024-03-23T04:54:44;6.85;;;3.70;;
73779;SDS011;62093;37.614;15.072;2024-03-23T04:57:11;7.45;;;4.10;;
73779;SDS011;62093;37.614;15.072;2024-03-23T04:59:37;5.18;;;2.95;;
73779;SDS011;62093;37.614;15.072;2024-03-23T05:02:02;5.77;;;3.07;;
73779;SDS011;62093;37.614;15.072;2024-03-23T05:04:28;5.97;;;2.97;;
73779;SDS011;62093;37.614;15.072;2024-03-23T05:06:54;6.07;;;3.20;;
73779;SDS011;62093;37.614;15.072;2024-03-23T05:09:20;5.60;;;3.17;;
73779;SDS011;62093;37.614;15.072;2024-03-23T05:11:47;6.03;;;3.30;;
73779;SDS011;62093;37.614;15.072;2024-03-23T05:14:13;5.82;;;3.13;;
73779;SDS011;62093;37.614;15.072;2024-03-23T05:16:39;6.30;;;3.67;;
73779;SDS011;62093;37.614;15.072;2024-03-23T05:19:05;5.50;;;2.72;;
73779;SDS011;62093;37.614;15.072;2024-03-23T05:21:31;5.70;;;3.47;;
73779;SDS011;62093;37.614;15.072;2024-03-23T05:23:57;5.15;;;3.38;;
73779;SDS011;62093;37.614;15.072;2024-03-23T05:26:23;5.68;;;3.38;;
73779;SDS011;62093;37.614;15.072;2024-03-23T05:28:49;5.17;;;3.27;;
73779;SDS011;62093;37.614;15.072;2024-03-23T05:31:24;5.93;;;3.30;;
73779;SDS011;62093;37.614;15.072;2024-03-23T05:33:54;5.75;;;3.35;;
73779;SDS011;62093;37.614;15.072;2024-03-23T05:36:20;5.82;;;3.15;;
73779;SDS011;62093;37.614;15.072;2024-03-23T05:38:46;5.30;;;3.20;;
73779;SDS011;62093;37.614;15.072;2024-03-23T05:41:12;5.30;;;3.13;;
73779;SDS011;62093;37.614;15.072;2024-03-23T05:43:38;6.22;;;3.92;;
73779;SDS011;62093;37.614;15.072;2024-03-23T05:46:03;5.70;;;3.50;;
73779;SDS011;62093;37.614;15.072;2024-03-23T05:48:36;5.03;;;3.00;;
73779;SDS011;62093;37.614;15.072;2024-03-23T05:51:02;6.53;;;3.40;;
73779;SDS011;62093;37.614;15.072;2024-03-23T05:53:28;5.68;;;3.05;;
73779;SDS011;62093;37.614;15.072;2024-03-23T05:56:02;5.88;;;3.33;;
73779;SDS011;62093;37.614;15.072;2024-03-23T05:58:32;6.57;;;3.38;;
73779;SDS011;62093;37.614;15.072;2024-03-23T06:00:58;5.47;;;2.97;;
73779;SDS011;62093;37.614;15.072;2024-03-23T06:03:28;6.32;;;3.30;;
73779;SDS011;62093;37.614;15.072;2024-03-23T06:05:54;4.93;;;2.95;;
73779;SDS011;62093;37.614;15.072;2024-03-23T06:08:20;5.57;;;3.38;;
73779;SDS011;62093;37.614;15.072;2024-03-23T06:10:47;5.30;;;2.83;;
73779;SDS011;62093;37.614;15.072;2024-03-23T06:13:13;5.50;;;3.10;;
73779;SDS011;62093;37.614;15.072;2024-03-23T06:15:39;5.68;;;2.97;;
73779;SDS011;62093;37.614;15.072;2024-03-23T06:18:05;5.47;;;3.08;;
73779;SDS011;62093;37.614;15.072;2024-03-23T06:20:33;5.10;;;2.75;;
73779;SDS011;62093;37.614;15.072;2024-03-23T06:23:00;5.33;;;2.80;;
73779;SDS011;62093;37.614;15.072;2024-03-23T06:25:27;6.63;;;3.25;;
73779;SDS011;62093;37.614;15.072;2024-03-23T06:27:53;5.00;;;2.58;;
73779;SDS011;62093;37.614;15.072;2024-03-23T06:30:18;5.75;;;3.30;;
73779;SDS011;62093;37.614;15.072;2024-03-23T06:32:44;5.77;;;3.23;;
73779;SDS011;62093;37.614;15.072;2024-03-23T06:35:10;5.47;;;3.20;;
73779;SDS011;62093;37.614;15.072;2024-03-23T06:37:36;5.50;;;3.10;;
73779;SDS011;62093;37.614;15.072;2024-03-23T06:40:02;6.03;;;3.08;;
73779;SDS011;62093;37.614;15.072;2024-03-23T06:42:31;5.50;;;2.90;;
73779;SDS011;62093;37.614;15.072;2024-03-23T06:44:57;5.70;;;3.10;;
73779;SDS011;62093;37.614;15.072;2024-03-23T06:47:23;5.27;;;3.10;;
73779;SDS011;62093;37.614;15.072;2024-03-23T06:49:50;4.82;;;2.90;;
73779;SDS011;62093;37.614;15.072;2024-03-23T06:52:16;5.68;;;3.28;;
73779;SDS011;62093;37.614;15.072;2024-03-23T06:54:42;4.85;;;2.70;;
73779;SDS011;62093;37.614;15.072;2024-03-23T06:57:10;5.20;;;3.07;;
73779;SDS011;62093;37.614;15.072;2024-03-23T06:59:37;5.32;;;3.00;;
73779;SDS011;62093;37.614;15.072;2024-03-23T07:02:04;5.32;;;3.00;;
73779;SDS011;62093;37.614;15.072;2024-03-23T07:04:31;5.78;;;3.10;;
73779;SDS011;62093;37.614;15.072;2024-03-23T07:06:57;5.20;;;2.83;;
73779;SDS011;62093;37.614;15.072;2024-03-23T07:09:22;5.18;;;2.72;;
73779;SDS011;62093;37.614;15.072;2024-03-23T07:11:53;5.30;;;3.00;;
73779;SDS011;62093;37.614;15.072;2024-03-23T07:14:20;5.13;;;2.53;;
73779;SDS011;62093;37.614;15.072;2024-03-23T07:16:46;5.07;;;2.53;;
73779;SDS011;62093;37.614;15.072;2024-03-23T07:19:14;5.70;;;3.10;;
73779;SDS011;62093;37.614;15.072;2024-03-23T07:21:42;5.03;;;2.85;;
73779;SDS011;62093;37.614;15.072;2024-03-23T07:24:09;4.72;;;2.80;;
73779;SDS011;62093;37.614;15.072;2024-03-23T07:26:35;5.30;;;2.97;;
73779;SDS011;62093;37.614;15.072;2024-03-23T07:29:01;4.97;;;2.60;;
73779;SDS011;62093;37.614;15.072;2024-03-23T07:31:27;5.47;;;2.90;;
73779;SDS011;62093;37.614;15.072;2024-03-23T07:33:53;4.85;;;2.67;;
73779;SDS011;62093;37.614;15.072;2024-03-23T07:36:19;5.15;;;2.85;;
73779;SDS011;62093;37.614;15.072;2024-03-23T07:38:45;5.50;;;2.70;;
73779;SDS011;62093;37.614;15.072;2024-03-23T07:41:13;5.32;;;2.85;;
73779;SDS011;62093;37.614;15.072;2024-03-23T07:43:44;5.38;;;2.88;;
73779;SDS011;62093;37.614;15.072;2024-03-23T07:46:11;5.30;;;2.70;;
73779;SDS011;62093;37.614;15.072;2024-03-23T07:48:37;5.23;;;3.07;;
73779;SDS011;62093;37.614;15.072;2024-03-23T07:51:05;5.40;;;3.05;;
73779;SDS011;62093;37.614;15.072;2024-03-23T07:53:34;5.63;;;3.22;;
73779;SDS011;62093;37.614;15.072;2024-03-23T07:56:01;6.10;;;3.08;;
73779;SDS011;62093;37.614;15.072;2024-03-23T07:58:29;5.18;;;3.00;;
73779;SDS011;62093;37.614;15.072;2024-03-23T08:00:55;5.27;;;2.87;;
73779;SDS011;62093;37.614;15.072;2024-03-23T08:03:22;5.00;;;3.15;;
73779;SDS011;62093;37.614;15.072;2024-03-23T08:05:48;5.45;;;3.08;;
73779;SDS011;62093;37.614;15.072;2024-03-23T08:08:14;5.07;;;2.85;;
73779;SDS011;62093;37.614;15.072;2024-03-23T08:13:15;4.97;;;2.70;;
73779;SDS011;62093;37.614;15.072;2024-03-23T08:15:41;5.90;;;3.00;;
73779;SDS011;62093;37.614;15.072;2024-03-23T08:18:08;5.15;;;2.90;;
73779;SDS011;62093;37.614;15.072;2024-03-23T08:20:34;4.47;;;2.60;;
73779;SDS011;62093;37.614;15.072;2024-03-23T08:23:00;5.33;;;2.90;;
73779;SDS011;62093;37.614;15.072;2024-03-23T08:25:25;5.25;;;2.83;;
73779;SDS011;62093;37.614;15.072;2024-03-23T08:27:52;5.65;;;2.88;;
73779;SDS011;62093;37.614;15.072;2024-03-23T08:30:17;4.83;;;2.77;;
73779;SDS011;62093;37.614;15.072;2024-03-23T08:32:44;5.22;;;2.70;;
73779;SDS011;62093;37.614;15.072;2024-03-23T08:35:09;4.85;;;2.67;;
73779;SDS011;62093;37.614;15.072;2024-03-23T08:37:35;5.50;;;3.00;;
73779;SDS011;62093;37.614;15.072;2024-03-23T08:40:01;4.90;;;2.83;;
73779;SDS011;62093;37.614;15.072;2024-03-23T08:42:29;4.95;;;2.72;;
73779;SDS011;62093;37.614;15.072;2024-03-23T08:44:55;4.80;;;2.53;;
73779;SDS011;62093;37.614;15.072;2024-03-23T08:47:21;5.23;;;3.13;;
73779;SDS011;62093;37.614;15.072;2024-03-23T08:49:47;5.10;;;2.85;;
73779;SDS011;62093;37.614;15.072;2024-03-23T08:52:13;5.17;;;3.00;;
73779;SDS011;62093;37.614;15.072;2024-03-23T08:54:39;5.00;;;2.72;;
73779;SDS011;62093;37.614;15.072;2024-03-23T08:57:04;4.88;;;2.80;;
73779;SDS011;62093;37.614;15.072;2024-03-23T08:59:30;5.17;;;2.90;;
73779;SDS011;62093;37.614;15.072;2024-03-23T09:01:56;5.55;;;2.85;;
73779;SDS011;62093;37.614;15.072;2024-03-23T09:04:22;4.60;;;2.65;;
73779;SDS011;62093;37.614;15.072;2024-03-23T09:06:48;4.93;;;2.40;;
73779;SDS011;62093;37.614;15.072;2024-03-23T09:09:14;4.65;;;2.50;;
73779;SDS011;62093;37.614;15.072;2024-03-23T09:11:40;4.83;;;2.63;;
73779;SDS011;62093;37.614;15.072;2024-03-23T09:14:05;5.37;;;3.20;;
73779;SDS011;62093;37.614;15.072;2024-03-23T09:16:31;4.75;;;2.42;;
73779;SDS011;62093;37.614;15.072;2024-03-23T09:18:57;5.43;;;3.05;;
73779;SDS011;62093;37.614;15.072;2024-03-23T09:21:23;5.67;;;2.70;;
73779;SDS011;62093;37.614;15.072;2024-03-23T09:23:49;5.15;;;2.80;;
73779;SDS011;62093;37.614;15.072;2024-03-23T09:26:15;5.20;;;2.92;;
73779;SDS011;62093;37.614;15.072;2024-03-23T09:28:41;5.17;;;2.70;;
73779;SDS011;62093;37.614;15.072;2024-03-23T09:31:07;5.57;;;3.03;;
73779;SDS011;62093;37.614;15.072;2024-03-23T09:33:34;5.60;;;3.17;;
73779;SDS011;62093;37.614;15.072;2024-03-23T09:36:03;5.93;;;2.78;;
73779;SDS011;62093;37.614;15.072;2024-03-23T09:38:30;5.20;;;3.03;;
73779;SDS011;62093;37.614;15.072;2024-03-23T09:40:56;5.50;;;3.00;;
73779;SDS011;62093;37.614;15.072;2024-03-23T09:43:23;5.18;;;2.80;;
73779;SDS011;62093;37.614;15.072;2024-03-23T09:45:49;5.38;;;3.00;;
73779;SDS011;62093;37.614;15.072;2024-03-23T09:48:15;5.57;;;3.22;;
73779;SDS011;62093;37.614;15.072;2024-03-23T09:50:42;4.80;;;2.50;;
73779;SDS011;62093;37.614;15.072;2024-03-23T09:53:13;5.50;;;3.20;;
73779;SDS011;62093;37.614;15.072;2024-03-23T09:55:39;5.57;;;3.10;;
73779;SDS011;62093;37.614;15.072;2024-03-23T09:58:06;5.22;;;2.90;;
73779;SDS011;62093;37.614;15.072;2024-03-23T10:00:32;5.22;;;2.90;;
73779;SDS011;62093;37.614;15.072;2024-03-23T10:02:59;5.25;;;3.00;;
73779;SDS011;62093;37.614;15.072;2024-03-23T10:05:28;5.30;;;2.80;;
73779;SDS011;62093;37.614;15.072;2024-03-23T10:07:56;6.30;;;3.25;;
73779;SDS011;62093;37.614;15.072;2024-03-23T10:10:22;5.25;;;3.00;;
73779;SDS011;62093;37.614;15.072;2024-03-23T10:12:50;5.53;;;2.97;;
73779;SDS011;62093;37.614;15.072;2024-03-23T10:15:20;5.47;;;2.70;;
73779;SDS011;62093;37.614;15.072;2024-03-23T10:17:47;4.72;;;2.55;;
73779;SDS011;62093;37.614;15.072;2024-03-23T10:20:18;5.35;;;2.67;;
73779;SDS011;62093;37.614;15.072;2024-03-23T10:22:48;5.20;;;2.45;;
73779;SDS011;62093;37.614;15.072;2024-03-23T10:25:15;5.20;;;2.65;;
73779;SDS011;62093;37.614;15.072;2024-03-23T10:27:41;5.20;;;2.60;;
73779;SDS011;62093;37.614;15.072;2024-03-23T10:30:09;5.28;;;2.95;;
73779;SDS011;62093;37.614;15.072;2024-03-23T10:32:42;5.50;;;3.05;;
73779;SDS011;62093;37.614;15.072;2024-03-23T10:35:18;5.45;;;2.63;;
73779;SDS011;62093;37.614;15.072;2024-03-23T10:37:47;5.40;;;2.90;;
73779;SDS011;62093;37.614;15.072;2024-03-23T10:40:17;4.73;;;2.67;;
73779;SDS011;62093;37.614;15.072;2024-03-23T10:42:44;5.13;;;2.75;;
73779;SDS011;62093;37.614;15.072;2024-03-23T10:45:10;5.30;;;3.10;;
73779;SDS011;62093;37.614;15.072;2024-03-23T10:47:37;6.18;;;3.08;;
73779;SDS011;62093;37.614;15.072;2024-03-23T10:50:03;4.88;;;2.92;;
73779;SDS011;62093;37.614;15.072;2024-03-23T10:52:33;4.83;;;2.57;;
73779;SDS011;62093;37.614;15.072;2024-03-23T10:55:00;5.07;;;2.90;;
73779;SDS011;62093;37.614;15.072;2024-03-23T10:57:52;6.00;;;2.95;;
73779;SDS011;62093;37.614;15.072;2024-03-23T11:00:17;4.93;;;2.58;;
73779;SDS011;62093;37.614;15.072;2024-03-23T11:02:44;5.03;;;2.90;;
73779;SDS011;62093;37.614;15.072;2024-03-23T11:05:31;5.17;;;2.70;;
73779;SDS011;62093;37.614;15.072;2024-03-23T11:07:57;4.53;;;2.50;;
73779;SDS011;62093;37.614;15.072;2024-03-23T11:12:55;5.15;;;2.53;;
73779;SDS011;62093;37.614;15.072;2024-03-23T11:15:41;5.20;;;2.80;;
73779;SDS011;62093;37.614;15.072;2024-03-23T11:18:07;4.90;;;2.40;;
73779;SDS011;62093;37.614;15.072;2024-03-23T11:20:34;5.05;;;2.60;;
73779;SDS011;62093;37.614;15.072;2024-03-23T11:23:02;5.10;;;2.58;;
73779;SDS011;62093;37.614;15.072;2024-03-23T11:25:29;5.00;;;2.60;;
73779;SDS011;62093;37.614;15.072;2024-03-23T11:28:10;4.85;;;2.50;;
73779;SDS011;62093;37.614;15.072;2024-03-23T11:30:37;6.03;;;2.47;;
73779;SDS011;62093;37.614;15.072;2024-03-23T11:33:04;4.90;;;2.40;;
73779;SDS011;62093;37.614;15.072;2024-03-23T11:35:31;4.45;;;2.42;;
73779;SDS011;62093;37.614;15.072;2024-03-23T11:38:01;4.93;;;2.63;;
73779;SDS011;62093;37.614;15.072;2024-03-23T11:40:32;5.00;;;2.30;;
73779;SDS011;62093;37.614;15.072;2024-03-23T11:43:00;5.07;;;2.67;;
73779;SDS011;62093;37.614;15.072;2024-03-23T11:45:27;4.35;;;2.13;;
73779;SDS011;62093;37.614;15.072;2024-03-23T11:48:10;4.60;;;2.55;;
73779;SDS011;62093;37.614;15.072;2024-03-23T11:50:44;4.82;;;2.60;;
73779;SDS011;62093;37.614;15.072;2024-03-23T11:55:51;5.00;;;2.90;;
73779;SDS011;62093;37.614;15.072;2024-03-23T11:58:22;6.75;;;2.08;;
73779;SDS011;62093;37.614;15.072;2024-03-23T12:00:50;4.88;;;2.20;;
73779;SDS011;62093;37.614;15.072;2024-03-23T12:03:23;5.32;;;2.20;;
73779;SDS011;62093;37.614;15.072;2024-03-23T12:05:55;4.75;;;2.58;;
73779;SDS011;62093;37.614;15.072;2024-03-23T12:13:40;5.40;;;2.60;;
73779;SDS011;62093;37.614;15.072;2024-03-23T12:16:21;4.55;;;2.00;;
73779;SDS011;62093;37.614;15.072;2024-03-23T12:18:52;4.32;;;2.30;;
73779;SDS011;62093;37.614;15.072;2024-03-23T12:21:18;5.10;;;2.37;;
73779;SDS011;62093;37.614;15.072;2024-03-23T12:23:44;4.30;;;2.13;;
73779;SDS011;62093;37.614;15.072;2024-03-23T12:26:12;5.07;;;2.50;;
73779;SDS011;62093;37.614;15.072;2024-03-23T12:28:38;4.45;;;2.35;;
73779;SDS011;62093;37.614;15.072;2024-03-23T12:31:04;4.78;;;2.42;;
73779;SDS011;62093;37.614;15.072;2024-03-23T12:33:33;5.40;;;2.60;;
73779;SDS011;62093;37.614;15.072;2024-03-23T12:35:59;4.70;;;2.35;;
73779;SDS011;62093;37.614;15.072;2024-03-23T12:38:25;5.00;;;2.40;;
73779;SDS011;62093;37.614;15.072;2024-03-23T12:40:52;5.18;;;2.50;;
73779;SDS011;62093;37.614;15.072;2024-03-23T12:43:18;4.47;;;2.28;;
73779;SDS011;62093;37.614;15.072;2024-03-23T12:45:47;4.33;;;2.40;;
73779;SDS011;62093;37.614;15.072;2024-03-23T12:48:13;4.45;;;2.13;;
73779;SDS011;62093;37.614;15.072;2024-03-23T12:50:39;5.03;;;2.50;;
73779;SDS011;62093;37.614;15.072;2024-03-23T12:53:05;5.47;;;2.47;;
73779;SDS011;62093;37.614;15.072;2024-03-23T12:55:31;5.10;;;2.50;;
73779;SDS011;62093;37.614;15.072;2024-03-23T12:57:57;4.97;;;2.17;;
73779;SDS011;62093;37.614;15.072;2024-03-23T13:00:24;4.70;;;2.25;;
73779;SDS011;62093;37.614;15.072;2024-03-23T13:02:50;4.53;;;2.40;;
73779;SDS011;62093;37.614;15.072;2024-03-23T13:05:17;4.85;;;2.40;;
73779;SDS011;62093;37.614;15.072;2024-03-23T13:07:43;4.97;;;2.40;;
73779;SDS011;62093;37.614;15.072;2024-03-23T13:10:10;4.70;;;2.30;;
73779;SDS011;62093;37.614;15.072;2024-03-23T13:12:37;4.43;;;2.10;;
73779;SDS011;62093;37.614;15.072;2024-03-23T13:15:03;4.73;;;2.50;;
73779;SDS011;62093;37.614;15.072;2024-03-23T13:17:30;5.05;;;2.53;;
73779;SDS011;62093;37.614;15.072;2024-03-23T13:19:57;4.60;;;2.30;;
73779;SDS011;62093;37.614;15.072;2024-03-23T13:22:23;4.82;;;2.08;;
73779;SDS011;62093;37.614;15.072;2024-03-23T13:24:49;4.57;;;2.00;;
73779;SDS011;62093;37.614;15.072;2024-03-23T13:27:16;4.83;;;2.60;;
73779;SDS011;62093;37.614;15.072;2024-03-23T13:29:43;4.65;;;2.30;;
73779;SDS011;62093;37.614;15.072;2024-03-23T13:32:12;5.35;;;2.42;;
73779;SDS011;62093;37.614;15.072;2024-03-23T13:34:39;4.82;;;2.22;;
73779;SDS011;62093;37.614;15.072;2024-03-23T13:37:06;5.13;;;2.45;;
73779;SDS011;62093;37.614;15.072;2024-03-23T13:39:33;4.73;;;2.40;;
73779;SDS011;62093;37.614;15.072;2024-03-23T13:41:59;4.88;;;2.40;;
73779;SDS011;62093;37.614;15.072;2024-03-23T13:44:25;4.40;;;2.20;;
73779;SDS011;62093;37.614;15.072;2024-03-23T13:46:51;5.68;;;2.78;;
73779;SDS011;62093;37.614;15.072;2024-03-23T13:51:54;4.60;;;2.50;;
73779;SDS011;62093;37.614;15.072;2024-03-23T13:54:21;4.90;;;2.33;;
73779;SDS011;62093;37.614;15.072;2024-03-23T13:56:48;5.00;;;2.45;;
73779;SDS011;62093;37.614;15.072;2024-03-23T13:59:15;4.65;;;2.50;;
73779;SDS011;62093;37.614;15.072;2024-03-23T14:01:41;4.80;;;2.35;;
73779;SDS011;62093;37.614;15.072;2024-03-23T14:04:07;4.97;;;2.50;;
73779;SDS011;62093;37.614;15.072;2024-03-23T14:06:33;4.95;;;2.67;;
73779;SDS011;62093;37.614;15.072;2024-03-23T14:08:59;6.40;;;2.75;;
73779;SDS011;62093;37.614;15.072;2024-03-23T14:11:25;4.65;;;2.00;;
73779;SDS011;62093;37.614;15.072;2024-03-23T14:13:52;4.90;;;2.33;;
73779;SDS011;62093;37.614;15.072;2024-03-23T14:16:18;4.37;;;2.10;;
73779;SDS011;62093;37.614;15.072;2024-03-23T14:18:46;4.50;;;2.20;;
73779;SDS011;62093;37.614;15.072;2024-03-23T14:21:13;5.20;;;2.63;;
73779;SDS011;62093;37.614;15.072;2024-03-23T14:23:39;5.00;;;2.60;;
73779;SDS011;62093;37.614;15.072;2024-03-23T14:26:06;4.95;;;2.45;;
73779;SDS011;62093;37.614;15.072;2024-03-23T14:28:34;4.57;;;2.40;;
73779;SDS011;62093;37.614;15.072;2024-03-23T14:31:00;5.15;;;2.58;;
73779;SDS011;62093;37.614;15.072;2024-03-23T14:33:27;5.53;;;2.63;;
73779;SDS011;62093;37.614;15.072;2024-03-23T14:35:53;4.97;;;2.60;;
73779;SDS011;62093;37.614;15.072;2024-03-23T14:38:21;4.70;;;2.40;;
73779;SDS011;62093;37.614;15.072;2024-03-23T14:40:47;4.90;;;2.47;;
73779;SDS011;62093;37.614;15.072;2024-03-23T14:43:13;5.13;;;2.60;;
73779;SDS011;62093;37.614;15.072;2024-03-23T14:48:48;4.68;;;2.38;;
73779;SDS011;62093;37.614;15.072;2024-03-23T14:51:14;4.60;;;2.08;;
73779;SDS011;62093;37.614;15.072;2024-03-23T14:53:41;4.90;;;2.40;;
73779;SDS011;62093;37.614;15.072;2024-03-23T14:56:10;4.38;;;2.20;;
73779;SDS011;62093;37.614;15.072;2024-03-23T14:58:39;4.93;;;2.55;;
73779;SDS011;62093;37.614;15.072;2024-03-23T15:01:05;5.32;;;2.63;;
73779;SDS011;62093;37.614;15.072;2024-03-23T15:03:38;5.45;;;2.45;;
73779;SDS011;62093;37.614;15.072;2024-03-23T15:06:05;4.70;;;2.40;;
73779;SDS011;62093;37.614;15.072;2024-03-23T15:08:32;4.72;;;2.40;;
73779;SDS011;62093;37.614;15.072;2024-03-23T15:11:01;4.55;;;2.40;;
73779;SDS011;62093;37.614;15.072;2024-03-23T15:13:36;5.30;;;2.90;;
73779;SDS011;62093;37.614;15.072;2024-03-23T15:16:06;5.82;;;2.95;;
73779;SDS011;62093;37.614;15.072;2024-03-23T15:18:32;4.70;;;2.23;;
73779;SDS011;62093;37.614;15.072;2024-03-23T15:20:59;4.82;;;2.72;;
73779;SDS011;62093;37.614;15.072;2024-03-23T15:23:31;5.13;;;2.55;;
73779;SDS011;62093;37.614;15.072;2024-03-23T15:25:57;5.38;;;2.58;;
73779;SDS011;62093;37.614;15.072;2024-03-23T15:28:24;7.07;;;2.58;;
73779;SDS011;62093;37.614;15.072;2024-03-23T15:31:09;5.73;;;3.07;;
73779;SDS011;62093;37.614;15.072;2024-03-23T15:33:35;4.88;;;2.67;;
73779;SDS011;62093;37.614;15.072;2024-03-23T15:36:02;5.53;;;2.58;;
73779;SDS011;62093;37.614;15.072;2024-03-23T15:38:29;4.70;;;2.72;;
73779;SDS011;62093;37.614;15.072;2024-03-23T15:40:56;5.57;;;2.67;;
73779;SDS011;62093;37.614;15.072;2024-03-23T15:43:23;4.90;;;2.40;;
73779;SDS011;62093;37.614;15.072;2024-03-23T15:45:56;5.78;;;2.55;;